Time;durP1;ratioP1;P1;durP2;ratioP2;P2;SDS_P1;SDS_P2;PMS_P1;PMS_P2;Temp;Humidity;BMP_temperature;BMP_pressure;BME280_temperature;BME280_humidity;BME280_pressure;Samples;Min_cycle;Max_cycle;Signal;HPM_P1;HPM_P2
2024/02/07 00:00:23;;;;;;;9.48;3.70;;;;;;;8.05;66.47;100140.53;3143137;22;20020;-78
2024/02/07 00:01:38;;;;;;;3.20;1.75;;;;;;;8.06;66.15;100168.22;3143689;23;20019;-78
2024/02/07 00:02:51;;;;;;;5.28;2.88;;;;;;;8.08;66.31;100150.03;3144085;23;20024;-77
2024/02/07 00:04:06;;;;;;;3.28;2.83;;;;;;;8.08;66.29;100147.44;3143558;22;20104;-78
2024/02/07 00:05:19;;;;;;;3.67;2.38;;;;;;;8.09;66.08;100159.56;3143873;23;20024;-79
2024/02/07 00:06:34;;;;;;;4.53;2.60;;;;;;;8.10;66.17;100150.88;3143876;23;20016;-80
2024/02/07 00:07:47;;;;;;;5.78;2.90;;;;;;;8.09;66.23;100150.00;3143658;22;20058;-79
2024/02/07 00:09:02;;;;;;;7.90;2.60;;;;;;;8.10;66.13;100150.88;3147303;22;20024;-77
2024/02/07 00:10:15;;;;;;;3.25;2.53;;;;;;;8.11;66.07;100152.63;3154678;23;20080;-77
2024/02/07 00:11:31;;;;;;;2.80;2.60;;;;;;;8.12;66.00;100143.94;3150614;23;20031;-77
2024/02/07 00:12:45;;;;;;;3.05;2.53;;;;;;;8.13;65.67;100158.66;3149647;22;20233;-77
2024/02/07 00:13:59;;;;;;;2.35;2.13;;;;;;;8.14;65.73;100144.78;3145195;23;20024;-81
2024/02/07 00:15:13;;;;;;;4.63;2.30;;;;;;;8.15;65.62;100143.91;3143921;23;20024;-82
2024/02/07 00:16:27;;;;;;;5.90;3.05;;;;;;;8.14;66.05;100137.00;3144016;22;20091;-82
2024/02/07 00:17:41;;;;;;;4.63;2.58;;;;;;;8.12;66.03;100136.13;3143440;22;20463;-80
2024/02/07 00:18:55;;;;;;;3.60;2.30;;;;;;;8.12;66.35;100135.28;3144350;23;20067;-81
2024/02/07 00:20:09;;;;;;;4.45;3.33;;;;;;;8.11;66.34;100128.38;3140507;22;20024;-81
2024/02/07 00:21:24;;;;;;;3.58;2.65;;;;;;;8.07;66.69;100117.97;3144472;23;20355;-80
2024/02/07 00:22:37;;;;;;;3.40;2.45;;;;;;;8.05;67.16;100127.53;3143788;23;20017;-80
2024/02/07 00:23:52;;;;;;;6.35;2.83;;;;;;;8.01;67.10;100122.38;3144098;23;20096;-81
2024/02/07 00:25:07;;;;;;;6.00;2.90;;;;;;;7.97;67.77;100116.31;3142466;22;20107;-79
2024/02/07 00:26:21;;;;;;;4.05;3.10;;;;;;;7.92;67.99;100117.22;3143943;23;20024;-78
2024/02/07 00:27:36;;;;;;;4.90;3.25;;;;;;;7.88;67.91;100106.00;3143714;22;20020;-81
2024/02/07 00:28:50;;;;;;;4.05;2.75;;;;;;;7.82;68.31;100101.69;3143412;22;20051;-81
2024/02/07 00:30:05;;;;;;;2.70;2.38;;;;;;;7.77;68.89;100105.16;3143718;23;20097;-80
2024/02/07 00:31:20;;;;;;;4.35;2.55;;;;;;;7.71;69.32;100100.03;3143564;23;20095;-80
2024/02/07 00:32:33;;;;;;;3.50;3.10;;;;;;;7.67;69.41;100096.59;3143235;22;20081;-80
2024/02/07 00:33:48;;;;;;;4.13;2.85;;;;;;;7.62;69.98;100093.16;3143826;23;20046;-81
2024/02/07 00:35:02;;;;;;;6.05;3.58;;;;;;;7.59;70.11;100098.34;3144259;23;20024;-81
2024/02/07 00:36:17;;;;;;;5.88;2.50;;;;;;;7.55;70.57;100096.66;3143184;22;20024;-81
2024/02/07 00:37:30;;;;;;;7.10;3.20;;;;;;;7.51;70.69;100090.63;3144107;22;20020;-80
2024/02/07 00:38:44;;;;;;;10.05;3.72;;;;;;;7.48;70.96;100100.16;3143514;23;20024;-81
2024/02/07 00:39:58;;;;;;;3.72;2.55;;;;;;;7.42;71.20;100085.47;3143960;23;20020;-81
2024/02/07 00:41:19;;;;;;;4.15;3.15;;;;;;;7.40;71.24;100088.06;3142941;23;20402;-80
2024/02/07 00:42:33;;;;;;;3.05;2.53;;;;;;;7.39;71.50;100075.97;3143317;23;20020;-81
2024/02/07 00:43:49;;;;;;;4.35;3.33;;;;;;;7.38;71.13;100074.25;3143124;23;20087;-79
2024/02/07 00:45:03;;;;;;;3.72;2.97;;;;;;;7.37;70.98;100069.91;3142503;22;20031;-78
2024/02/07 00:46:17;;;;;;;6.30;3.50;;;;;;;7.37;70.81;100071.63;3143475;23;20028;-80
2024/02/07 00:47:31;;;;;;;7.50;3.63;;;;;;;7.36;71.04;100065.59;3143662;22;20016;-80
2024/02/07 00:48:45;;;;;;;6.10;3.22;;;;;;;7.37;70.82;100082.88;3142830;22;20020;-80
2024/02/07 00:49:59;;;;;;;3.92;2.60;;;;;;;7.41;70.34;100058.66;3143680;23;20020;-80
2024/02/07 00:51:13;;;;;;;3.08;2.25;;;;;;;7.46;70.53;100065.53;3143310;23;20091;-80
2024/02/07 00:52:26;;;;;;;4.85;3.05;;;;;;;7.51;70.17;100063.78;3142847;22;20045;-80
2024/02/07 00:53:41;;;;;;;4.50;2.47;;;;;;;7.55;69.96;100073.28;3143681;23;20056;-80
2024/02/07 00:54:54;;;;;;;3.05;2.58;;;;;;;7.61;69.44;100068.91;3143058;23;20097;-79
2024/02/07 00:56:09;;;;;;;3.42;2.55;;;;;;;7.67;69.07;100051.56;3143274;22;20027;-80
2024/02/07 00:57:22;;;;;;;3.92;2.72;;;;;;;7.70;68.95;100057.59;3143279;22;20447;-80
2024/02/07 00:58:37;;;;;;;6.93;2.47;;;;;;;7.73;68.96;100047.19;3143654;23;20020;-81
2024/02/07 00:59:51;;;;;;;6.47;2.92;;;;;;;7.78;68.58;100047.16;3142983;23;20031;-80
2024/02/07 01:01:06;;;;;;;6.20;2.63;;;;;;;7.82;68.50;100043.66;3143290;22;20020;-80
2024/02/07 01:02:20;;;;;;;2.83;2.35;;;;;;;7.85;68.25;100054.91;3143088;23;20039;-80
2024/02/07 01:03:35;;;;;;;3.70;2.35;;;;;;;7.88;68.10;100055.78;3143769;23;20051;-79
2024/02/07 01:04:50;;;;;;;3.42;2.70;;;;;;;7.90;68.34;100054.00;3142588;22;20027;-79
2024/02/07 01:06:05;;;;;;;3.60;2.33;;;;;;;7.91;68.07;100047.94;3143796;23;20031;-79
2024/02/07 01:07:18;;;;;;;4.85;2.47;;;;;;;7.91;68.17;100061.78;3142808;22;20024;-80
2024/02/07 01:08:32;;;;;;;4.50;1.98;;;;;;;7.93;67.90;100057.44;3143272;22;20384;-79
2024/02/07 01:09:46;;;;;;;3.35;2.72;;;;;;;7.95;68.14;100054.81;3143044;23;20044;-79
2024/02/07 01:11:00;;;;;;;5.78;2.92;;;;;;;7.97;67.99;100063.47;3143984;23;20095;-81
2024/02/07 01:12:14;;;;;;;4.15;3.00;;;;;;;7.97;68.04;100060.88;3142956;22;20024;-81
2024/02/07 01:13:28;;;;;;;3.13;2.55;;;;;;;7.98;67.72;100050.50;3144065;23;20078;-80
2024/02/07 01:14:42;;;;;;;4.70;2.80;;;;;;;8.01;67.81;100060.00;3143153;23;20020;-80
2024/02/07 01:15:58;;;;;;;3.92;2.33;;;;;;;8.03;67.72;100053.91;3143737;23;20423;-82
2024/02/07 01:17:11;;;;;;;2.33;1.92;;;;;;;8.05;67.67;100059.06;3142436;22;20016;-81
2024/02/07 01:18:25;;;;;;;5.88;2.50;;;;;;;8.06;67.50;100053.03;3146178;23;20050;-80
2024/02/07 01:19:39;;;;;;;4.75;2.70;;;;;;;8.06;67.31;100048.69;3146709;23;20352;-80
2024/02/07 01:20:53;;;;;;;3.80;2.08;;;;;;;8.08;67.05;100048.69;3142155;22;20099;-80
2024/02/07 01:22:07;;;;;;;2.85;1.90;;;;;;;8.11;66.98;100046.06;3143436;23;20024;-81
2024/02/07 01:23:21;;;;;;;2.67;2.05;;;;;;;8.15;66.67;100054.69;3142851;23;20094;-80
2024/02/07 01:24:35;;;;;;;2.40;1.80;;;;;;;8.15;66.96;100042.53;3143383;22;20103;-80
2024/02/07 01:25:50;;;;;;;4.47;2.03;;;;;;;8.17;66.49;100040.78;3143067;23;20031;-81
2024/02/07 01:27:04;;;;;;;4.57;1.90;;;;;;;8.19;66.65;100067.66;3143807;22;20028;-79
2024/02/07 01:28:19;;;;;;;4.30;2.72;;;;;;;8.20;66.14;100040.75;3142267;22;20460;-80
2024/02/07 01:29:33;;;;;;;4.93;2.50;;;;;;;8.22;66.39;100049.41;3143945;23;20043;-79
2024/02/07 01:30:47;;;;;;;3.65;2.85;;;;;;;8.24;66.09;100034.69;3142695;23;20050;-79
2024/02/07 01:32:02;;;;;;;3.13;2.72;;;;;;;8.25;66.06;100046.78;3143009;22;20031;-79
2024/02/07 01:33:17;;;;;;;3.38;2.50;;;;;;;8.26;66.40;100045.94;3143516;23;20729;-79
2024/02/07 01:34:30;;;;;;;2.33;2.10;;;;;;;8.26;66.15;100047.63;3143910;23;20017;-81
2024/02/07 01:35:46;;;;;;;4.20;2.00;;;;;;;8.28;65.51;100044.16;3142867;23;20501;-80
2024/02/07 01:37:00;;;;;;;2.45;2.20;;;;;;;8.30;65.82;100042.41;3143206;22;20397;-80
2024/02/07 01:38:18;;;;;;;3.58;2.10;;;;;;;8.33;66.06;100038.91;3143563;23;20024;-80
2024/02/07 01:39:34;;;;;;;2.45;2.00;;;;;;;8.32;66.35;100041.53;3143176;23;20020;-78
2024/02/07 01:40:49;;;;;;;4.78;3.03;;;;;;;8.31;66.52;100045.84;3141746;22;20020;-80
2024/02/07 01:42:02;;;;;;;4.70;2.63;;;;;;;8.30;66.22;100049.34;3143976;23;20024;-80
2024/02/07 01:43:17;;;;;;;4.30;2.47;;;;;;;8.29;66.51;100042.44;3143257;23;20055;-80
2024/02/07 01:44:31;;;;;;;3.92;2.25;;;;;;;8.29;66.19;100038.09;3142838;22;20462;-80
2024/02/07 01:45:45;;;;;;;5.35;2.80;;;;;;;8.28;66.72;100033.75;3142903;23;20091;-80
2024/02/07 01:47:11;;;;;;;4.82;3.65;;;;;;;8.27;67.04;100042.44;3143228;22;20028;-79
2024/02/07 01:48:27;;;;;;;6.35;3.28;;;;;;;8.26;66.81;100032.03;3142979;22;20485;-80
2024/02/07 01:49:45;;;;;;;5.18;2.63;;;;;;;8.25;66.55;100018.19;3143904;23;20020;-78
2024/02/07 01:50:59;;;;;;;4.68;3.00;;;;;;;8.25;66.68;100022.53;3142677;23;20103;-79
2024/02/07 01:52:13;;;;;;;3.53;2.47;;;;;;;8.25;66.64;100036.38;3142701;22;20024;-79
2024/02/07 01:53:28;;;;;;;3.45;3.05;;;;;;;8.26;66.27;100021.63;3144269;23;20028;-78
2024/02/07 01:54:41;;;;;;;3.58;2.53;;;;;;;8.27;66.35;100008.66;3143354;23;20024;-79
2024/02/07 01:55:56;;;;;;;3.80;2.85;;;;;;;8.28;66.25;100020.75;3143473;23;20027;-80
2024/02/07 01:57:11;;;;;;;5.28;2.72;;;;;;;8.29;66.43;100017.28;3142212;22;20530;-80
2024/02/07 01:58:27;;;;;;;4.45;2.50;;;;;;;8.30;66.08;100005.16;3143589;23;20079;-80
2024/02/07 01:59:41;;;;;;;13.73;3.15;;;;;;;8.28;66.37;99999.97;3142642;23;20024;-80
2024/02/07 02:00:55;;;;;;;6.55;4.28;;;;;;;8.30;66.33;99995.59;3142777;22;20416;-80
2024/02/07 02:02:09;;;;;;;9.13;2.60;;;;;;;8.30;66.04;99995.59;3143173;23;20035;-79
2024/02/07 02:03:23;;;;;;;3.63;3.03;;;;;;;8.31;66.50;99996.47;3144638;23;20020;-80
2024/02/07 02:04:38;;;;;;;7.63;2.50;;;;;;;8.29;66.65;100014.69;3142655;22;20024;-79
2024/02/07 02:05:53;;;;;;;9.52;3.92;;;;;;;8.29;66.62;99996.50;3143573;23;20031;-79
2024/02/07 02:07:06;;;;;;;3.85;2.70;;;;;;;8.29;66.61;100006.03;3143105;22;20024;-79
2024/02/07 02:08:21;;;;;;;4.97;2.50;;;;;;;8.32;66.48;100005.16;3143133;22;20099;-79
2024/02/07 02:09:35;;;;;;;4.60;2.92;;;;;;;8.32;66.33;99999.94;3143252;23;20047;-78
2024/02/07 02:10:52;;;;;;;6.28;2.78;;;;;;;8.33;66.28;100002.50;3143343;23;20039;-81
2024/02/07 02:12:06;;;;;;;3.63;2.83;;;;;;;8.34;66.34;99988.66;3142633;22;20027;-78
2024/02/07 02:13:21;;;;;;;4.93;3.05;;;;;;;8.36;66.11;99980.81;3143128;23;20021;-79
2024/02/07 02:14:35;;;;;;;3.42;2.22;;;;;;;8.37;66.36;99979.97;3142963;23;20451;-79
2024/02/07 02:15:49;;;;;;;3.63;2.47;;;;;;;8.37;65.91;99980.81;3143173;23;20024;-80
2024/02/07 02:17:03;;;;;;;6.05;2.83;;;;;;;8.38;66.08;99979.94;3142833;22;20031;-79
2024/02/07 02:18:17;;;;;;;4.00;1.98;;;;;;;8.40;65.88;99961.75;3143943;23;20100;-79
2024/02/07 02:19:30;;;;;;;2.88;2.38;;;;;;;8.40;65.81;99970.41;3144720;23;20036;-80
2024/02/07 02:20:46;;;;;;;5.53;2.53;;;;;;;8.41;65.91;99960.88;3143133;22;20539;-79
2024/02/07 02:22:11;;;;;;;7.47;2.63;;;;;;;8.41;66.00;99974.72;3144768;23;20020;-78
2024/02/07 02:23:43;;;;;;;2.40;1.90;;;;;;;8.41;65.85;99956.53;3144291;23;20031;-79
2024/02/07 02:25:10;;;;;;;3.15;2.58;;;;;;;8.42;66.16;99945.25;3143709;22;20055;-79
2024/02/07 02:26:49;;;;;;;4.63;2.75;;;;;;;8.43;66.06;99959.97;3144647;23;20024;-79
2024/02/07 02:28:17;;;;;;;4.30;3.15;;;;;;;8.41;66.13;99943.53;3143385;22;20023;-78
2024/02/07 02:29:37;;;;;;;5.35;2.55;;;;;;;8.42;65.98;99957.41;3144619;23;20777;-81
2024/02/07 02:30:53;;;;;;;7.18;2.70;;;;;;;8.43;66.04;99951.31;3144007;23;20091;-79
2024/02/07 02:32:08;;;;;;;3.97;2.72;;;;;;;8.43;65.97;99956.53;3143808;22;20062;-78
2024/02/07 02:33:23;;;;;;;5.63;4.78;;;;;;;8.46;65.79;99951.28;3143832;23;20482;-80
2024/02/07 02:34:38;;;;;;;4.50;2.38;;;;;;;8.47;65.81;99948.69;3143781;23;20024;-79
2024/02/07 02:35:53;;;;;;;6.40;2.78;;;;;;;8.48;65.86;99949.53;3143983;23;20027;-79
2024/02/07 02:37:07;;;;;;;6.88;2.45;;;;;;;8.48;65.84;99947.78;3143950;22;20098;-80
2024/02/07 02:38:23;;;;;;;3.33;2.85;;;;;;;8.49;65.67;99946.03;3143806;23;20020;-80
2024/02/07 02:39:38;;;;;;;4.85;2.60;;;;;;;8.48;65.78;99944.31;3144454;23;20024;-80
2024/02/07 02:40:52;;;;;;;6.20;2.58;;;;;;;8.49;65.47;99948.63;3143265;22;20027;-79
2024/02/07 02:42:07;;;;;;;7.15;2.65;;;;;;;8.49;65.63;99946.03;3144410;23;20464;-79
2024/02/07 02:43:22;;;;;;;5.47;3.03;;;;;;;8.48;65.85;99939.97;3144129;23;20056;-80
2024/02/07 02:44:38;;;;;;;5.70;3.28;;;;;;;8.48;65.98;99945.19;3143867;22;20016;-80
2024/02/07 02:45:51;;;;;;;2.88;2.60;;;;;;;8.47;65.86;99933.06;3144028;23;20020;-80
2024/02/07 02:47:07;;;;;;;5.68;2.97;;;;;;;8.46;66.09;99935.69;3143903;22;20099;-81
2024/02/07 02:48:21;;;;;;;2.97;2.28;;;;;;;8.45;66.19;99950.44;3143258;22;20459;-81
2024/02/07 02:49:36;;;;;;;3.58;2.30;;;;;;;8.45;66.12;99957.38;3144554;23;20091;-79
2024/02/07 02:50:49;;;;;;;6.10;3.35;;;;;;;8.45;66.12;99942.63;3143403;23;20024;-79
2024/02/07 02:52:04;;;;;;;3.58;2.85;;;;;;;8.45;66.20;99949.56;3143116;22;20095;-79
2024/02/07 02:53:18;;;;;;;2.65;1.92;;;;;;;8.43;66.27;99948.72;3144678;23;20024;-79
2024/02/07 02:54:34;;;;;;;2.95;2.60;;;;;;;8.43;66.47;99941.78;3143837;23;20024;-78
2024/02/07 02:55:47;;;;;;;5.32;2.67;;;;;;;8.41;66.32;99935.72;3144477;23;20021;-79
2024/02/07 02:57:02;;;;;;;4.03;2.70;;;;;;;8.40;66.58;99936.63;3143022;22;20027;-77
2024/02/07 02:58:18;;;;;;;6.72;3.55;;;;;;;8.38;66.88;99942.69;3144217;23;20074;-81
2024/02/07 02:59:35;;;;;;;6.40;2.75;;;;;;;8.36;67.16;99937.47;3144151;23;20099;-78
2024/02/07 03:00:50;;;;;;;3.83;2.53;;;;;;;8.34;67.11;99938.38;3143744;22;20140;-78
2024/02/07 03:02:08;;;;;;;4.78;2.70;;;;;;;8.31;67.32;99947.06;3146959;23;20046;-78
2024/02/07 03:03:22;;;;;;;5.72;3.05;;;;;;;8.30;67.18;99964.41;3149709;23;20075;-78
2024/02/07 03:04:41;;;;;;;3.70;2.85;;;;;;;8.30;67.33;99935.81;3150557;22;20020;-77
2024/02/07 03:05:58;;;;;;;7.50;3.17;;;;;;;8.31;67.19;99934.06;3151072;23;20099;-77
2024/02/07 03:08:53;;;;;;;4.88;2.15;;;;;;;8.29;67.32;99933.25;3142653;22;20031;-80
2024/02/07 03:10:08;;;;;;;5.93;2.85;;;;;;;8.28;67.24;99932.38;3143525;23;20025;-81
2024/02/07 03:11:22;;;;;;;10.50;2.80;;;;;;;8.28;67.08;99921.97;3144897;23;20082;-79
2024/02/07 03:12:37;;;;;;;3.65;2.60;;;;;;;8.28;67.23;99929.75;3146043;22;20099;-78
2024/02/07 03:13:51;;;;;;;8.55;2.90;;;;;;;8.30;67.09;99927.16;3146343;23;20099;-81
2024/02/07 03:15:05;;;;;;;3.30;2.63;;;;;;;8.30;67.24;99920.22;3144210;23;20028;-81
2024/02/07 03:16:22;;;;;;;5.60;3.30;;;;;;;8.30;66.99;99917.63;3144211;22;20023;-80
2024/02/07 03:17:36;;;;;;;3.00;2.70;;;;;;;8.32;67.15;99919.34;3144130;22;20333;-81
2024/02/07 03:18:51;;;;;;;10.43;4.82;;;;;;;8.31;67.07;99913.28;3144859;23;20027;-80
2024/02/07 03:20:07;;;;;;;4.57;2.83;;;;;;;8.33;66.84;99914.13;3143407;22;20471;-80
2024/02/07 03:21:22;;;;;;;5.80;3.08;;;;;;;8.34;66.96;99914.97;3144687;23;20473;-80
2024/02/07 03:22:35;;;;;;;3.78;3.42;;;;;;;8.33;66.90;99914.13;3150432;23;20028;-79
2024/02/07 03:23:50;;;;;;;6.05;2.72;;;;;;;8.35;66.70;99911.50;3151400;23;20051;-78
2024/02/07 03:25:04;;;;;;;4.03;2.60;;;;;;;8.35;66.53;99914.97;3150929;22;20478;-78
2024/02/07 03:26:19;;;;;;;5.40;3.75;;;;;;;8.36;66.67;99916.69;3151392;23;20024;-77
2024/02/07 03:27:32;;;;;;;6.82;3.55;;;;;;;8.37;66.16;99913.22;3143883;22;20027;-81
2024/02/07 03:28:46;;;;;;;3.75;3.17;;;;;;;8.38;65.97;99909.72;3144412;22;20024;-80
2024/02/07 03:30:00;;;;;;;4.50;2.80;;;;;;;8.40;66.08;99907.16;3144666;23;20031;-82
2024/02/07 03:31:14;;;;;;;6.00;2.65;;;;;;;8.41;66.13;99898.47;3144374;23;20451;-79
2024/02/07 03:32:29;;;;;;;4.13;3.15;;;;;;;8.41;66.11;99914.06;3143885;22;20020;-81
2024/02/07 03:33:47;;;;;;;4.55;3.00;;;;;;;8.43;66.02;99896.72;3144286;23;20507;-80
2024/02/07 03:35:02;;;;;;;4.32;3.03;;;;;;;8.43;66.24;99896.72;3144908;23;20031;-80
2024/02/07 03:36:16;;;;;;;4.15;2.33;;;;;;;8.43;66.21;99897.56;3143584;22;20020;-80
2024/02/07 03:37:29;;;;;;;3.83;2.78;;;;;;;8.44;65.76;99891.50;3144206;22;20460;-80
2024/02/07 03:38:44;;;;;;;4.32;2.80;;;;;;;8.46;65.87;99881.06;3143881;23;20020;-80
2024/02/07 03:39:57;;;;;;;6.53;2.72;;;;;;;8.48;65.58;99889.72;3144246;23;20023;-81
2024/02/07 03:41:12;;;;;;;5.05;3.45;;;;;;;8.48;65.45;99880.16;3142983;22;20051;-81
2024/02/07 03:42:26;;;;;;;3.38;2.47;;;;;;;8.49;65.12;99881.03;3144297;23;20342;-79
2024/02/07 03:43:41;;;;;;;3.92;3.05;;;;;;;8.53;65.15;99893.13;3143833;23;20028;-80
2024/02/07 03:44:56;;;;;;;5.95;4.15;;;;;;;8.54;65.18;99881.84;3143865;22;20043;-81
2024/02/07 03:46:13;;;;;;;4.78;4.10;;;;;;;8.56;65.01;99877.47;3143906;23;20451;-80
2024/02/07 03:47:26;;;;;;;3.47;2.63;;;;;;;8.58;65.16;99885.28;3143849;22;20020;-80
2024/02/07 03:48:43;;;;;;;5.63;2.65;;;;;;;8.57;65.27;99884.41;3142936;22;20024;-79
2024/02/07 03:49:57;;;;;;;7.53;3.58;;;;;;;8.59;65.21;99868.78;3143961;23;20104;-80
2024/02/07 03:51:15;;;;;;;5.22;3.20;;;;;;;8.60;64.89;99879.16;3143827;23;20095;-80
2024/02/07 03:52:28;;;;;;;4.38;3.38;;;;;;;8.61;64.85;99891.28;3143960;22;20024;-80
2024/02/07 03:53:47;;;;;;;5.03;2.70;;;;;;;8.62;65.08;99885.22;3143998;23;20055;-80
2024/02/07 03:55:00;;;;;;;6.18;2.95;;;;;;;8.64;65.04;99874.78;3144110;22;20024;-77
2024/02/07 03:56:15;;;;;;;4.53;3.15;;;;;;;8.64;65.23;99887.78;3156180;22;20024;-77
2024/02/07 03:57:28;;;;;;;5.18;3.05;;;;;;;8.63;65.11;99886.06;3159698;22;20023;-80
2024/02/07 03:58:43;;;;;;;4.10;3.45;;;;;;;8.63;65.19;99889.53;3160008;22;20020;-80
2024/02/07 03:59:57;;;;;;;5.65;3.10;;;;;;;8.61;65.58;99883.47;3160223;22;20099;-79
2024/02/07 04:01:15;;;;;;;5.30;3.28;;;;;;;8.60;65.52;99889.56;3163126;22;20019;-78
2024/02/07 04:02:29;;;;;;;3.90;3.25;;;;;;;8.57;65.99;99889.63;3160973;22;20099;-80
2024/02/07 04:03:46;;;;;;;5.00;3.75;;;;;;;8.56;65.86;99872.28;3159351;22;20034;-80
2024/02/07 04:05:01;;;;;;;8.57;3.17;;;;;;;8.56;65.97;99894.81;3157741;22;20031;-80
2024/02/07 04:06:15;;;;;;;5.45;2.65;;;;;;;8.55;66.26;99888.78;3144575;23;20044;-79
2024/02/07 04:07:29;;;;;;;8.30;4.50;;;;;;;8.54;65.94;99874.03;3144894;23;20024;-81
2024/02/07 04:08:43;;;;;;;4.50;2.90;;;;;;;8.55;65.99;99875.75;3144172;22;20095;-80
2024/02/07 04:09:57;;;;;;;4.35;2.97;;;;;;;8.52;66.07;99876.66;3149608;23;20020;-80
2024/02/07 05:16:10;;;;;;;4.63;3.30;;;;;;;8.68;65.34;99816.63;3148054;22;20035;-80
2024/02/07 05:17:23;;;;;;;7.18;3.28;;;;;;;8.68;65.46;99804.50;3144077;23;20020;-79
2024/02/07 05:18:38;;;;;;;6.10;3.72;;;;;;;8.68;65.29;99811.44;3144741;23;20089;-80
2024/02/07 05:19:51;;;;;;;9.98;3.25;;;;;;;8.68;65.50;99795.84;3144233;23;20501;-79
2024/02/07 05:21:09;;;;;;;6.28;3.22;;;;;;;8.68;65.31;99807.09;3143643;22;20095;-80
2024/02/07 05:22:23;;;;;;;5.90;2.92;;;;;;;8.69;65.46;99785.38;3144826;23;20478;-80
2024/02/07 05:23:37;;;;;;;5.20;4.20;;;;;;;8.69;65.52;99806.19;3144818;23;20096;-79
2024/02/07 05:24:52;;;;;;;4.68;3.03;;;;;;;8.71;65.25;99803.59;3144079;22;20340;-79
2024/02/07 05:26:06;;;;;;;5.57;3.33;;;;;;;8.73;65.15;99807.03;3145804;22;20055;-78
2024/02/07 05:27:20;;;;;;;5.38;3.80;;;;;;;8.71;65.36;99773.22;3144873;23;20047;-79
2024/02/07 05:28:36;;;;;;;7.63;3.45;;;;;;;8.73;65.33;99794.03;3144051;22;20095;-79
2024/02/07 05:29:50;;;;;;;5.55;3.03;;;;;;;8.74;65.04;99809.59;3144724;23;20020;-79
2024/02/07 05:31:04;;;;;;;9.10;3.97;;;;;;;8.74;65.05;99783.56;3145083;23;20021;-79
2024/02/07 05:32:18;;;;;;;5.32;2.38;;;;;;;8.77;65.02;99784.41;3148126;22;20021;-79
2024/02/07 05:33:32;;;;;;;5.38;2.80;;;;;;;8.79;64.64;99785.25;3145343;23;20099;-80
2024/02/07 05:34:45;;;;;;;8.05;3.60;;;;;;;8.78;64.64;99781.81;3145487;23;20020;-79
2024/02/07 05:36:00;;;;;;;4.07;3.30;;;;;;;8.79;64.90;99780.91;3144194;22;20482;-79
2024/02/07 05:37:15;;;;;;;5.03;4.15;;;;;;;8.79;64.92;99765.31;3144972;23;20355;-79
2024/02/07 05:38:30;;;;;;;5.18;3.20;;;;;;;8.80;64.88;99769.59;3144797;23;20020;-80
2024/02/07 05:39:44;;;;;;;6.15;3.47;;;;;;;8.80;64.77;99777.41;3145230;23;20370;-80
2024/02/07 05:40:59;;;;;;;9.18;4.25;;;;;;;8.82;64.43;99764.41;3144671;22;20020;-80
2024/02/07 05:42:13;;;;;;;2.83;2.50;;;;;;;8.82;64.61;99765.25;3144675;23;20024;-80
2024/02/07 05:43:27;;;;;;;3.90;2.55;;;;;;;8.82;64.67;99780.00;3145195;23;20086;-79
2024/02/07 05:44:41;;;;;;;5.57;3.70;;;;;;;8.83;64.64;99760.91;3143942;22;20028;-79
2024/02/07 05:45:56;;;;;;;5.28;3.28;;;;;;;8.83;64.51;99750.50;3144986;22;20095;-79
2024/02/07 05:47:09;;;;;;;4.55;2.70;;;;;;;8.82;64.73;99762.66;3144248;23;20098;-80
2024/02/07 05:48:24;;;;;;;5.07;3.53;;;;;;;8.84;64.68;99767.84;3143647;22;20024;-80
2024/02/07 05:49:37;;;;;;;6.28;3.80;;;;;;;8.84;64.52;99758.28;3144535;23;20020;-80
2024/02/07 05:50:53;;;;;;;8.05;3.45;;;;;;;8.85;64.61;99770.41;3144593;23;20058;-80
2024/02/07 05:52:06;;;;;;;7.63;3.58;;;;;;;8.84;64.47;99766.09;3145750;22;20096;-80
2024/02/07 05:53:22;;;;;;;6.15;3.92;;;;;;;8.85;64.61;99762.59;3145858;23;20350;-79
2024/02/07 05:54:36;;;;;;;4.20;2.72;;;;;;;8.85;64.64;99764.34;3146059;23;20104;-79
2024/02/07 05:55:50;;;;;;;4.78;3.00;;;;;;;8.85;64.51;99770.41;3145709;22;20043;-80
2024/02/07 05:57:04;;;;;;;7.78;3.72;;;;;;;8.86;64.65;99766.06;3145219;22;20459;-79
2024/02/07 05:58:19;;;;;;;6.45;2.92;;;;;;;8.87;64.73;99778.19;3146371;23;20139;-79
2024/02/07 05:59:32;;;;;;;4.53;3.00;;;;;;;8.86;64.47;99763.47;3150857;23;20042;-80
2024/02/07 06:00:47;;;;;;;7.20;3.50;;;;;;;8.88;64.58;99764.28;3145395;22;20024;-80
2024/02/07 06:02:01;;;;;;;4.95;2.80;;;;;;;8.87;64.69;99773.84;3145456;23;20024;-79
2024/02/07 06:03:16;;;;;;;4.28;3.42;;;;;;;8.88;64.61;99767.78;3146177;23;20500;-80
2024/02/07 06:04:30;;;;;;;5.13;2.90;;;;;;;8.87;64.73;99771.25;3147868;22;20020;-80
2024/02/07 06:05:45;;;;;;;5.72;3.38;;;;;;;8.88;64.60;99764.28;3145453;22;20052;-79
2024/02/07 06:06:58;;;;;;;7.63;3.63;;;;;;;8.89;64.34;99766.03;3145141;23;20020;-80
2024/02/07 06:08:13;;;;;;;4.38;3.00;;;;;;;8.89;64.47;99773.81;3144818;22;20076;-80
2024/02/07 06:09:27;;;;;;;4.05;3.13;;;;;;;8.88;64.26;99766.88;3145173;23;20017;-79
2024/02/07 06:10:42;;;;;;;6.35;2.88;;;;;;;8.88;64.34;99765.16;3145558;23;20028;-80
2024/02/07 06:11:56;;;;;;;4.78;2.72;;;;;;;8.88;64.44;99759.09;3150517;23;20498;-80
2024/02/07 06:13:10;;;;;;;5.07;3.50;;;;;;;8.88;64.57;99759.09;3144834;22;20051;-80
2024/02/07 06:14:23;;;;;;;3.88;3.00;;;;;;;8.87;64.24;99765.19;3146165;23;20032;-80
2024/02/07 06:15:38;;;;;;;3.42;2.85;;;;;;;8.87;64.48;99754.78;3146558;22;20103;-79
2024/02/07 06:16:51;;;;;;;8.35;3.53;;;;;;;8.87;64.43;99770.38;3146399;22;20043;-81
2024/02/07 06:18:06;;;;;;;4.45;2.53;;;;;;;8.86;64.44;99758.28;3145673;23;20060;-79
2024/02/07 06:19:20;;;;;;;6.50;3.40;;;;;;;8.87;64.87;99762.59;3145387;23;20020;-80
2024/02/07 06:20:34;;;;;;;7.65;2.97;;;;;;;8.86;64.29;99759.13;3147076;22;20031;-79
2024/02/07 06:21:49;;;;;;;7.15;2.85;;;;;;;8.87;64.25;99765.19;3145882;23;20043;-79
2024/02/07 06:23:03;;;;;;;3.35;2.55;;;;;;;8.86;64.32;99753.91;3145782;23;20028;-80
2024/02/07 06:24:17;;;;;;;3.78;2.55;;;;;;;8.87;64.33;99757.38;3145179;22;20027;-80
2024/02/07 06:25:33;;;;;;;5.03;2.70;;;;;;;8.87;64.49;99762.59;3145529;22;20146;-79
2024/02/07 06:26:46;;;;;;;4.15;2.50;;;;;;;8.86;64.46;99766.94;3149970;23;20591;-79
2024/02/07 06:28:01;;;;;;;5.20;3.47;;;;;;;8.88;64.51;99775.56;3152001;22;20022;-79
2024/02/07 06:29:14;;;;;;;13.05;2.67;;;;;;;8.88;64.51;99780.78;3145517;23;20017;-80
2024/02/07 06:30:29;;;;;;;4.95;3.30;;;;;;;8.88;64.68;99772.09;3145183;23;20044;-80
2024/02/07 06:31:42;;;;;;;3.88;2.80;;;;;;;8.89;64.43;99768.63;3150325;23;20023;-79
2024/02/07 06:32:57;;;;;;;6.30;3.33;;;;;;;8.90;64.50;99773.78;3144514;22;20282;-79
2024/02/07 06:34:10;;;;;;;4.68;3.75;;;;;;;8.90;64.40;99765.97;3145680;23;20024;-79
2024/02/07 06:35:25;;;;;;;7.78;3.13;;;;;;;8.91;64.33;99767.72;3145332;22;20091;-79
2024/02/07 06:36:38;;;;;;;10.95;2.80;;;;;;;8.92;64.47;99751.22;3144346;22;20020;-80
2024/02/07 06:37:52;;;;;;;4.63;3.20;;;;;;;8.93;64.23;99762.47;3145496;23;20091;-79
2024/02/07 06:39:06;;;;;;;5.45;2.85;;;;;;;8.93;64.33;99759.88;3145303;23;20017;-79
2024/02/07 06:40:19;;;;;;;6.28;2.40;;;;;;;8.95;64.16;99760.72;3144389;22;20507;-79
2024/02/07 06:41:35;;;;;;;5.13;3.80;;;;;;;8.95;64.20;99752.91;3145490;23;20055;-80
2024/02/07 06:42:48;;;;;;;9.93;3.40;;;;;;;8.97;64.31;99756.34;3145597;23;20031;-80
2024/02/07 06:44:03;;;;;;;7.78;3.13;;;;;;;8.99;64.30;99758.94;3145020;22;20047;-79
2024/02/07 06:45:16;;;;;;;4.78;3.28;;;;;;;8.99;64.22;99766.75;3145083;22;20024;-79
2024/02/07 06:46:31;;;;;;;4.63;3.22;;;;;;;9.01;63.95;99755.41;3144050;23;20111;-80
2024/02/07 06:47:45;;;;;;;4.00;2.75;;;;;;;9.02;63.95;99751.91;3149838;23;20020;-79
2024/02/07 06:48:59;;;;;;;6.65;2.40;;;;;;;9.02;64.05;99767.53;3143876;22;20044;-79
2024/02/07 06:50:13;;;;;;;8.13;3.63;;;;;;;9.03;64.66;99753.63;3145138;23;20068;-80
2024/02/07 06:51:27;;;;;;;5.20;3.20;;;;;;;8.99;65.74;99762.38;3144887;23;20096;-78
2024/02/07 06:52:41;;;;;;;5.22;3.83;;;;;;;8.93;65.89;99763.34;3145104;22;20027;-77
2024/02/07 06:53:56;;;;;;;4.70;2.75;;;;;;;8.85;66.73;99777.34;3144961;23;20024;-80
2024/02/07 06:55:09;;;;;;;5.28;3.25;;;;;;;8.77;67.19;99755.81;3143809;22;20363;-80
2024/02/07 06:56:23;;;;;;;5.97;3.17;;;;;;;8.68;67.66;99755.06;3144367;22;20123;-79
2024/02/07 06:57:38;;;;;;;4.00;3.15;;;;;;;8.61;68.06;99760.38;3150393;23;20023;-81
2024/02/07 06:58:53;;;;;;;9.30;3.03;;;;;;;8.55;68.50;99768.28;3145030;23;20020;-80
2024/02/07 07:00:07;;;;;;;3.97;3.10;;;;;;;8.48;68.93;99752.75;3091051;22;20459;-80
2024/02/07 07:01:22;;;;;;;5.13;3.80;;;;;;;8.43;69.27;99762.34;3141655;23;20062;-79